Time;durP1;ratioP1;P1;durP2;ratioP2;P2;SDS_P1;SDS_P2;PMS_P1;PMS_P2;Temp;Humidity;BMP_temperature;BMP_pressure;BME280_temperature;BME280_humidity;BME280_pressure;Samples;Min_cycle;Max_cycle;Signal;HPM_P1;HPM_P2
2024/03/07 00:01:03;;;;;;;4.25;1.95;;;10.10;51.80;;;;;;6325218;28;20035;-77
2024/03/07 00:04:04;;;;;;;5.03;1.80;;;10.10;51.90;;;;;;6322590;28;20050;-76
2024/03/07 00:07:07;;;;;;;6.10;2.40;;;10.10;51.90;;;;;;6322017;28;20104;-77
2024/03/07 00:10:09;;;;;;;5.18;1.85;;;10.00;52.10;;;;;;6301856;28;20137;-77
2024/03/07 00:13:12;;;;;;;6.47;2.53;;;10.00;52.20;;;;;;6319251;28;20020;-77
2024/03/07 00:16:14;;;;;;;2.67;1.65;;;10.00;52.30;;;;;;6304178;28;20068;-77
2024/03/07 00:19:15;;;;;;;4.28;2.25;;;9.90;52.40;;;;;;6297863;28;20086;-78
2024/03/07 00:22:16;;;;;;;3.10;1.90;;;9.90;52.60;;;;;;6317324;28;20094;-77
2024/03/07 00:25:19;;;;;;;8.27;2.90;;;9.90;52.70;;;;;;6328706;28;20054;-76
2024/03/07 00:28:20;;;;;;;5.75;3.20;;;9.90;52.90;;;;;;6313965;28;20027;-79
2024/03/07 00:31:23;;;;;;;7.93;2.88;;;9.80;52.80;;;;;;6311712;28;20028;-77
2024/03/07 00:34:24;;;;;;;9.90;3.17;;;9.80;53.00;;;;;;6306727;28;20039;-78
2024/03/07 00:37:27;;;;;;;7.63;2.70;;;9.80;53.20;;;;;;6328215;28;20024;-77
2024/03/07 00:40:28;;;;;;;6.28;2.78;;;9.70;53.40;;;;;;6320540;28;20036;-76
2024/03/07 00:43:29;;;;;;;4.60;2.30;;;9.70;53.60;;;;;;6279705;28;20138;-76
2024/03/07 00:46:30;;;;;;;6.07;2.13;;;9.70;53.80;;;;;;6295572;28;20073;-78
2024/03/07 00:49:31;;;;;;;3.67;2.05;;;9.60;54.00;;;;;;6304174;28;20020;-76
2024/03/07 00:52:34;;;;;;;8.88;3.05;;;9.60;54.00;;;;;;6322408;28;20032;-77
2024/03/07 00:55:35;;;;;;;6.55;2.50;;;9.60;54.10;;;;;;6321035;28;20092;-77
2024/03/07 00:58:35;;;;;;;28.67;3.38;;;9.60;54.10;;;;;;6339778;28;20032;-78
2024/03/07 01:01:38;;;;;;;5.80;2.67;;;9.60;54.20;;;;;;6316261;28;20073;-77
2024/03/07 01:04:38;;;;;;;11.23;2.80;;;9.60;54.30;;;;;;6321712;28;20051;-77
2024/03/07 01:07:40;;;;;;;6.22;2.92;;;9.60;54.10;;;;;;6320753;28;20214;-77
2024/03/07 01:10:40;;;;;;;9.13;3.92;;;9.60;54.10;;;;;;6303900;28;20020;-78
2024/03/07 01:18:04;;;;;;;2.72;1.95;;;9.60;53.90;;;;;;6314577;28;20084;-75
2024/03/07 01:21:05;;;;;;;5.80;1.88;;;9.60;54.00;;;;;;6309937;28;20043;-77
2024/03/07 01:24:08;;;;;;;6.43;2.10;;;9.50;54.00;;;;;;6309575;28;20130;-76
2024/03/07 01:27:09;;;;;;;14.65;2.47;;;9.50;54.10;;;;;;6303037;28;20056;-77
2024/03/07 01:30:11;;;;;;;3.65;2.17;;;9.40;54.20;;;;;;6306718;28;20061;-77
2024/03/07 01:33:12;;;;;;;4.78;2.10;;;9.40;54.30;;;;;;6318769;28;20012;-77
2024/03/07 01:36:13;;;;;;;7.43;2.67;;;9.40;54.40;;;;;;6327121;28;20028;-76
2024/03/07 01:39:16;;;;;;;6.75;2.65;;;9.40;54.40;;;;;;6326448;28;20035;-76
2024/03/07 01:42:18;;;;;;;7.43;2.17;;;9.40;54.40;;;;;;6316474;28;20075;-77
2024/03/07 01:45:18;;;;;;;5.35;2.13;;;9.40;54.50;;;;;;6297125;28;20591;-77
2024/03/07 01:48:31;;;;;;;4.22;2.10;;;9.40;54.50;;;;;;6302978;28;20023;-76
2024/03/07 01:51:33;;;;;;;7.32;1.80;;;9.30;54.50;;;;;;6305533;28;20457;-77
2024/03/07 01:54:35;;;;;;;3.45;1.92;;;9.30;54.60;;;;;;6300531;28;20047;-78
2024/03/07 01:57:36;;;;;;;5.05;1.73;;;9.20;54.70;;;;;;6316486;28;20030;-78
2024/03/07 02:00:37;;;;;;;4.35;1.90;;;9.20;54.70;;;;;;6311983;28;20119;-78
2024/03/07 02:03:43;;;;;;;3.00;1.67;;;9.10;54.80;;;;;;6302083;28;20070;-77
2024/03/07 02:06:45;;;;;;;3.10;1.95;;;9.10;55.10;;;;;;6309883;28;20033;-78
2024/03/07 02:09:46;;;;;;;2.85;1.52;;;9.00;54.90;;;;;;6302640;28;20033;-77
2024/03/07 02:12:49;;;;;;;3.80;1.70;;;9.10;55.00;;;;;;6311007;28;20016;-77
2024/03/07 02:15:55;;;;;;;5.45;1.60;;;9.10;55.00;;;;;;6319602;28;20138;-78
2024/03/07 02:18:59;;;;;;;6.72;2.38;;;9.00;55.10;;;;;;6321256;28;20107;-77
2024/03/07 02:22:00;;;;;;;3.70;1.83;;;8.90;55.10;;;;;;6301256;28;20059;-76
2024/03/07 02:25:03;;;;;;;6.88;2.70;;;9.00;55.20;;;;;;6320525;28;20392;-78
2024/03/07 02:28:06;;;;;;;2.67;1.75;;;9.00;55.20;;;;;;6322493;28;20016;-77
2024/03/07 02:31:07;;;;;;;5.35;1.83;;;9.00;55.10;;;;;;6319483;28;20048;-77
2024/03/07 02:34:07;;;;;;;6.72;2.03;;;9.00;55.20;;;;;;6305767;28;20127;-76
2024/03/07 02:37:09;;;;;;;2.22;1.52;;;9.00;55.10;;;;;;6325109;28;20028;-77
2024/03/07 02:40:10;;;;;;;4.30;1.90;;;9.00;55.10;;;;;;6328601;28;20020;-77
2024/03/07 02:43:11;;;;;;;2.90;1.63;;;9.00;55.10;;;;;;6309384;28;20035;-78
2024/03/07 02:46:12;;;;;;;1.50;1.35;;;9.00;55.00;;;;;;6325939;28;20165;-78
2024/03/07 02:49:16;;;;;;;4.10;1.50;;;9.00;55.00;;;;;;6302190;28;20050;-77
2024/03/07 02:52:17;;;;;;;2.80;1.63;;;9.00;54.90;;;;;;6322733;28;20078;-76
2024/03/07 02:55:20;;;;;;;5.22;2.20;;;9.00;54.90;;;;;;6291740;28;20037;-77
2024/03/07 02:58:21;;;;;;;3.10;1.30;;;9.00;54.90;;;;;;6323816;28;20106;-77
2024/03/07 03:01:21;;;;;;;3.45;1.73;;;9.00;54.90;;;;;;6312219;28;20111;-78
2024/03/07 03:04:24;;;;;;;7.25;1.98;;;9.00;55.00;;;;;;6303376;28;20031;-77
2024/03/07 03:07:27;;;;;;;2.95;1.90;;;8.90;55.10;;;;;;6327635;28;20111;-77
2024/03/07 03:10:31;;;;;;;6.45;2.20;;;8.90;55.30;;;;;;6308944;28;20024;-76
2024/03/07 03:13:32;;;;;;;2.28;1.60;;;8.90;55.40;;;;;;6309875;28;20048;-77
2024/03/07 03:16:33;;;;;;;5.97;1.80;;;8.80;55.40;;;;;;6325022;28;20035;-77
2024/03/07 03:19:33;;;;;;;2.42;1.52;;;8.80;55.50;;;;;;6322268;28;20024;-77
2024/03/07 03:22:38;;;;;;;8.02;1.85;;;8.80;55.60;;;;;;6306422;28;20029;-76
2024/03/07 03:25:39;;;;;;;2.80;1.70;;;8.80;55.80;;;;;;6304260;28;20039;-78
2024/03/07 03:28:41;;;;;;;7.53;2.05;;;8.70;56.00;;;;;;6317931;28;20051;-77
2024/03/07 03:31:42;;;;;;;3.22;1.55;;;8.60;56.20;;;;;;6323898;28;20048;-78
2024/03/07 03:34:43;;;;;;;4.13;1.67;;;8.50;56.30;;;;;;6312955;28;20061;-78
2024/03/07 03:37:45;;;;;;;5.88;2.22;;;8.50;56.30;;;;;;6300210;28;20043;-78
2024/03/07 03:40:47;;;;;;;3.63;2.28;;;8.40;56.30;;;;;;6300798;28;20086;-77
2024/03/07 03:43:48;;;;;;;2.92;1.83;;;8.50;56.50;;;;;;6311243;28;20020;-77
2024/03/07 03:46:49;;;;;;;3.40;1.75;;;8.40;56.40;;;;;;6312070;28;20048;-75
2024/03/07 03:49:50;;;;;;;4.53;2.00;;;8.50;56.30;;;;;;6304524;28;20035;-76
2024/03/07 03:52:52;;;;;;;11.10;2.13;;;8.50;56.30;;;;;;6317620;28;20016;-78
2024/03/07 03:55:53;;;;;;;4.85;1.73;;;8.60;56.30;;;;;;6323165;28;20035;-78
2024/03/07 03:58:56;;;;;;;2.90;1.98;;;8.50;56.30;;;;;;6321581;28;20087;-77
2024/03/07 04:01:57;;;;;;;2.58;1.92;;;8.60;56.30;;;;;;6322398;28;20028;-77
2024/03/07 04:04:59;;;;;;;7.72;2.00;;;8.60;56.30;;;;;;6307244;28;20436;-77
2024/03/07 04:08:00;;;;;;;4.03;2.17;;;8.60;56.30;;;;;;6328046;28;20020;-76
2024/03/07 04:11:01;;;;;;;2.88;1.83;;;8.60;56.30;;;;;;6323435;28;20110;-77
2024/03/07 04:14:02;;;;;;;3.33;1.98;;;8.60;56.30;;;;;;6325416;28;20122;-77
2024/03/07 04:17:06;;;;;;;9.93;2.22;;;8.50;56.20;;;;;;6322504;28;20028;-78
2024/03/07 04:20:10;;;;;;;2.83;1.88;;;8.50;56.20;;;;;;6294189;28;20075;-77
2024/03/07 04:23:11;;;;;;;1.73;1.58;;;8.50;56.30;;;;;;6326657;28;20024;-77
2024/03/07 04:26:13;;;;;;;7.97;2.10;;;8.40;56.30;;;;;;6297508;28;20035;-78
2024/03/07 04:29:14;;;;;;;3.92;2.53;;;8.50;56.30;;;;;;6282221;28;20025;-78
2024/03/07 04:32:17;;;;;;;4.85;2.28;;;8.40;56.50;;;;;;6295304;28;20046;-77
2024/03/07 04:35:17;;;;;;;4.57;1.98;;;8.40;56.70;;;;;;6286870;28;20121;-77
2024/03/07 04:38:18;;;;;;;6.13;2.55;;;8.30;56.80;;;;;;6316334;28;20028;-77
2024/03/07 04:41:21;;;;;;;4.07;2.13;;;8.30;56.90;;;;;;6300035;28;20058;-76
2024/03/07 04:44:22;;;;;;;4.88;2.30;;;8.30;56.90;;;;;;6312514;28;20021;-77
2024/03/07 04:47:23;;;;;;;3.83;2.08;;;8.30;56.90;;;;;;6300767;28;20208;-76
2024/03/07 04:50:26;;;;;;;4.60;2.72;;;8.30;56.90;;;;;;6294160;28;20024;-76
2024/03/07 04:53:27;;;;;;;3.60;1.73;;;8.30;56.80;;;;;;6316159;28;20169;-76
2024/03/07 04:56:28;;;;;;;3.58;2.05;;;8.30;56.90;;;;;;6322543;28;20031;-75
2024/03/07 04:59:29;;;;;;;4.25;2.25;;;8.40;56.90;;;;;;6307003;28;20183;-77
2024/03/07 05:02:30;;;;;;;5.70;2.13;;;8.40;56.90;;;;;;6321182;28;20024;-77
2024/03/07 05:05:31;;;;;;;3.88;2.63;;;8.30;56.90;;;;;;6317449;28;20135;-78
2024/03/07 05:08:33;;;;;;;4.30;2.13;;;8.30;57.60;;;;;;6286813;28;20056;-76
2024/03/07 05:11:35;;;;;;;4.55;2.60;;;8.20;57.10;;;;;;6315265;28;21316;-75
2024/03/07 05:14:40;;;;;;;7.90;2.88;;;8.10;57.20;;;;;;6303244;28;20020;-77
2024/03/07 05:17:42;;;;;;;7.60;2.70;;;8.10;57.30;;;;;;6318014;28;20036;-78
2024/03/07 05:20:43;;;;;;;5.53;3.42;;;8.10;57.50;;;;;;6319022;28;20064;-77
2024/03/07 05:23:44;;;;;;;6.28;3.30;;;8.00;57.60;;;;;;6301977;28;20038;-78
2024/03/07 05:26:48;;;;;;;7.50;4.13;;;8.00;57.80;;;;;;6323525;28;20227;-77
2024/03/07 05:29:49;;;;;;;10.15;4.05;;;7.90;58.00;;;;;;6289871;28;20487;-77
2024/03/07 05:32:51;;;;;;;10.70;4.35;;;7.80;58.00;;;;;;6293943;28;20036;-77
2024/03/07 05:36:02;;;;;;;12.95;4.35;;;7.80;58.10;;;;;;6315045;28;20043;-77
2024/03/07 05:39:10;;;;;;;6.72;2.47;;;7.80;58.10;;;;;;6284138;28;20028;-77
2024/03/07 05:42:13;;;;;;;2.85;2.30;;;7.80;58.10;;;;;;6310348;28;20174;-78
2024/03/07 05:45:17;;;;;;;4.00;2.50;;;7.80;58.10;;;;;;6318793;28;20072;-77
2024/03/07 05:48:18;;;;;;;8.10;2.47;;;7.80;58.20;;;;;;6292595;28;20025;-77
2024/03/07 05:51:21;;;;;;;3.47;2.20;;;7.70;58.30;;;;;;6292398;28;20528;-75
2024/03/07 05:54:22;;;;;;;4.28;2.33;;;7.70;58.50;;;;;;6293231;28;20028;-77
2024/03/07 05:57:23;;;;;;;3.75;1.88;;;7.60;58.60;;;;;;6312464;28;20029;-76
2024/03/07 06:00:27;;;;;;;12.38;1.58;;;7.60;58.60;;;;;;6320458;28;20020;-80
2024/03/07 06:03:28;;;;;;;3.15;1.95;;;7.60;58.60;;;;;;6308547;28;20059;-77
2024/03/07 06:06:31;;;;;;;3.95;2.20;;;7.60;58.50;;;;;;6315059;28;20151;-77
2024/03/07 06:09:32;;;;;;;2.72;1.50;;;7.60;58.60;;;;;;6308143;28;20021;-76
2024/03/07 06:12:35;;;;;;;1.02;0.93;;;7.60;58.50;;;;;;6313439;28;20031;-76
2024/03/07 06:16:05;;;;;;;4.88;2.33;;;7.60;58.40;;;;;;6322239;28;20047;-78
2024/03/07 06:19:07;;;;;;;3.17;1.83;;;7.60;58.50;;;;;;6322604;28;20047;-77
2024/03/07 06:22:08;;;;;;;7.50;2.53;;;7.50;58.60;;;;;;6307207;28;20032;-77
2024/03/07 06:25:18;;;;;;;2.70;1.60;;;7.50;58.70;;;;;;6324951;28;20146;-78
2024/03/07 06:28:21;;;;;;;4.70;1.90;;;7.40;58.90;;;;;;6324493;28;20012;-77
2024/03/07 06:31:22;;;;;;;3.65;1.85;;;7.40;59.10;;;;;;6274201;28;20464;-78
2024/03/07 06:34:23;;;;;;;3.20;1.58;;;7.40;59.20;;;;;;6320083;28;20019;-77
2024/03/07 06:37:27;;;;;;;7.13;2.30;;;7.40;59.30;;;;;;6316188;28;20024;-78
2024/03/07 06:40:32;;;;;;;2.97;2.03;;;7.40;59.40;;;;;;6308350;28;20028;-79
2024/03/07 06:43:34;;;;;;;2.50;1.90;;;7.30;59.40;;;;;;6298499;28;20089;-78
2024/03/07 06:46:35;;;;;;;3.35;2.00;;;7.30;59.50;;;;;;6307769;28;20115;-75
2024/03/07 06:49:36;;;;;;;2.53;1.33;;;7.40;59.50;;;;;;6320893;28;20024;-78
2024/03/07 06:52:40;;;;;;;4.22;1.73;;;7.40;59.50;;;;;;6319880;28;20449;-77
2024/03/07 06:55:41;;;;;;;4.95;2.40;;;7.40;59.40;;;;;;6322016;28;20024;-76
2024/03/07 06:58:45;;;;;;;4.50;2.10;;;7.40;59.40;;;;;;6306526;28;20023;-78
2024/03/07 07:01:47;;;;;;;6.00;1.98;;;7.40;59.40;;;;;;6315216;28;20049;-77
2024/03/07 07:04:47;;;;;;;2.65;1.58;;;7.40;59.50;;;;;;6318567;28;20084;-77
2024/03/07 07:07:48;;;;;;;8.05;2.97;;;7.40;59.60;;;;;;6318065;28;20076;-76
2024/03/07 07:10:50;;;;;;;3.00;1.70;;;7.50;59.60;;;;;;6320317;28;20012;-76
2024/03/07 07:13:51;;;;;;;5.10;2.08;;;7.50;59.50;;;;;;6277145;28;20092;-77
2024/03/07 07:16:55;;;;;;;8.52;2.35;;;7.60;59.40;;;;;;6285597;28;20032;-77
2024/03/07 07:19:59;;;;;;;11.88;2.75;;;7.60;59.30;;;;;;6287315;28;20444;-77
2024/03/07 07:23:02;;;;;;;3.58;2.30;;;7.70;59.30;;;;;;6286074;28;20100;-76
2024/03/07 07:26:05;;;;;;;5.80;2.53;;;7.70;59.20;;;;;;6299537;28;20113;-77
2024/03/07 07:29:11;;;;;;;9.40;2.35;;;7.80;59.10;;;;;;6320606;28;20116;-77
2024/03/07 07:32:12;;;;;;;4.35;2.90;;;7.80;59.00;;;;;;6322706;28;20032;-78
2024/03/07 07:35:17;;;;;;;2.05;1.88;;;7.90;58.90;;;;;;6302051;28;20437;-78
2024/03/07 07:38:18;;;;;;;7.30;3.10;;;8.00;58.80;;;;;;6299750;28;20061;-77
2024/03/07 07:41:21;;;;;;;6.82;2.75;;;8.00;58.70;;;;;;6314559;28;20016;-78
2024/03/07 07:44:22;;;;;;;6.32;2.08;;;8.10;58.60;;;;;;6322083;28;20024;-78
2024/03/07 07:47:24;;;;;;;3.72;2.35;;;8.10;58.50;;;;;;6306556;28;20458;-77
2024/03/07 07:50:25;;;;;;;5.38;2.40;;;8.20;58.40;;;;;;6296348;28;20106;-78
2024/03/07 07:53:26;;;;;;;9.27;2.60;;;8.40;58.50;;;;;;6299404;28;20111;-79
2024/03/07 07:56:28;;;;;;;5.53;2.67;;;8.30;58.40;;;;;;6305143;28;20044;-77
2024/03/07 07:59:29;;;;;;;6.85;3.05;;;8.40;58.30;;;;;;6311892;28;20096;-78
2024/03/07 08:02:30;;;;;;;9.38;2.95;;;8.50;58.20;;;;;;6331643;28;20038;-78
2024/03/07 08:05:34;;;;;;;8.25;3.45;;;8.60;58.10;;;;;;6308885;28;20092;-78
2024/03/07 08:08:36;;;;;;;6.45;2.92;;;8.80;57.80;;;;;;6320844;28;20032;-79
2024/03/07 08:11:38;;;;;;;10.23;3.70;;;8.90;57.70;;;;;;6302967;28;20023;-80
2024/03/07 08:14:39;;;;;;;2.92;2.25;;;9.00;57.60;;;;;;6302732;28;20028;-78
2024/03/07 08:17:44;;;;;;;3.80;2.45;;;9.10;57.40;;;;;;6311257;28;20023;-76
2024/03/07 08:20:45;;;;;;;7.05;2.45;;;9.30;56.90;;;;;;6314366;28;20098;-78
2024/03/07 08:23:47;;;;;;;6.78;3.28;;;9.50;56.50;;;;;;6306485;28;20025;-78
2024/03/07 08:26:48;;;;;;;5.45;3.03;;;9.60;56.30;;;;;;6310573;28;20026;-78
2024/03/07 08:29:50;;;;;;;6.20;3.05;;;9.70;56.10;;;;;;6304045;28;20024;-77
2024/03/07 08:32:53;;;;;;;9.10;3.08;;;9.80;55.80;;;;;;6308734;28;20110;-78
2024/03/07 08:35:54;;;;;;;10.57;2.95;;;10.00;55.40;;;;;;6325036;28;20028;-77
2024/03/07 08:38:55;;;;;;;5.65;2.90;;;10.10;55.00;;;;;;6325386;28;20023;-76
2024/03/07 08:41:57;;;;;;;9.88;3.17;;;10.20;54.80;;;;;;6321335;28;20039;-77
2024/03/07 08:44:58;;;;;;;8.95;2.08;;;10.30;54.80;;;;;;6296847;28;20100;-78
2024/03/07 08:47:59;;;;;;;6.53;2.03;;;10.40;54.40;;;;;;6304606;28;20043;-77
2024/03/07 08:51:02;;;;;;;4.18;2.78;;;10.50;54.00;;;;;;6319607;28;20051;-78
2024/03/07 08:54:02;;;;;;;4.40;2.50;;;10.60;53.90;;;;;;6317264;28;20110;-77
2024/03/07 08:57:06;;;;;;;3.15;1.92;;;10.70;53.40;;;;;;6300809;28;20024;-77
2024/03/07 09:00:10;;;;;;;4.22;1.83;;;10.80;52.70;;;;;;6303931;28;20138;-78
2024/03/07 09:03:13;;;;;;;10.95;1.83;;;10.90;52.30;;;;;;6320317;28;20104;-76
2024/03/07 09:06:15;;;;;;;7.80;2.53;;;11.00;51.70;;;;;;6284597;28;20475;-77
2024/03/07 09:09:17;;;;;;;10.82;2.25;;;11.00;51.80;;;;;;6316358;28;20171;-77
2024/03/07 09:12:20;;;;;;;5.80;2.65;;;11.10;51.40;;;;;;6324487;28;20024;-77
2024/03/07 09:15:22;;;;;;;5.82;2.28;;;11.20;51.10;;;;;;6324324;28;20046;-77
2024/03/07 09:18:24;;;;;;;3.45;1.60;;;11.30;51.00;;;;;;6322608;28;20053;-78
2024/03/07 09:21:26;;;;;;;2.20;1.58;;;11.30;50.50;;;;;;6321278;28;20640;-77
2024/03/07 09:24:28;;;;;;;3.20;2.03;;;11.40;50.50;;;;;;6302063;28;20020;-78
2024/03/07 09:27:30;;;;;;;4.05;1.35;;;11.50;50.30;;;;;;6317082;28;20214;-77
2024/03/07 09:30:31;;;;;;;3.45;2.08;;;11.60;50.00;;;;;;6308699;28;20020;-76
2024/03/07 09:33:31;;;;;;;8.80;2.88;;;11.70;49.00;;;;;;6323734;28;20020;-76
2024/03/07 09:36:34;;;;;;;3.83;1.60;;;11.70;48.80;;;;;;6326138;28;20039;-78
2024/03/07 09:39:35;;;;;;;5.22;2.08;;;11.80;48.50;;;;;;6291006;28;20046;-77
2024/03/07 09:42:41;;;;;;;5.47;1.88;;;11.80;48.40;;;;;;6306876;28;20133;-75
2024/03/07 09:45:44;;;;;;;1.52;1.15;;;11.80;48.30;;;;;;6309258;28;20032;-77
2024/03/07 09:48:46;;;;;;;6.80;1.48;;;11.80;48.10;;;;;;6283658;28;20087;-77
2024/03/07 09:51:54;;;;;;;2.00;1.38;;;11.80;48.10;;;;;;6320095;28;20114;-76
2024/03/07 09:54:56;;;;;;;2.88;2.05;;;11.80;47.80;;;;;;6317864;28;20020;-77
2024/03/07 09:57:59;;;;;;;5.50;1.60;;;11.90;47.80;;;;;;6305459;28;20039;-75
2024/03/07 10:01:02;;;;;;;1.58;1.00;;;11.90;47.50;;;;;;6305971;28;20028;-77
2024/03/07 10:04:11;;;;;;;6.40;1.83;;;11.90;47.50;;;;;;6322534;28;20031;-77
2024/03/07 10:07:13;;;;;;;6.10;1.10;;;12.10;47.20;;;;;;6323760;28;20047;-78
2024/03/07 10:10:14;;;;;;;1.77;1.10;;;12.10;46.70;;;;;;6302737;28;20016;-78
2024/03/07 10:13:17;;;;;;;1.63;1.20;;;12.10;46.40;;;;;;6312394;28;20384;-77
2024/03/07 10:16:18;;;;;;;3.03;1.45;;;12.10;46.70;;;;;;6321123;28;20021;-77
2024/03/07 10:19:19;;;;;;;5.63;2.17;;;12.20;46.80;;;;;;6317133;28;20036;-75
2024/03/07 10:22:22;;;;;;;17.58;2.42;;;12.30;47.00;;;;;;6293671;28;20017;-76
2024/03/07 10:25:27;;;;;;;6.35;2.67;;;12.40;46.90;;;;;;6278023;28;20509;-79
2024/03/07 10:28:33;;;;;;;4.88;2.03;;;12.40;47.00;;;;;;6308763;28;20027;-76
2024/03/07 10:31:38;;;;;;;3.33;2.13;;;12.70;46.70;;;;;;6286939;28;20123;-78
2024/03/07 10:34:38;;;;;;;5.38;2.75;;;12.90;46.50;;;;;;6292322;28;20038;-76
2024/03/07 10:37:40;;;;;;;8.88;3.65;;;13.00;45.80;;;;;;6311039;28;20089;-78
2024/03/07 10:40:42;;;;;;;5.07;1.67;;;13.30;45.40;;;;;;6288898;28;20021;-77
2024/03/07 10:43:48;;;;;;;4.18;2.42;;;13.60;44.80;;;;;;6296053;28;20047;-77
2024/03/07 10:46:57;;;;;;;14.45;3.05;;;14.00;44.50;;;;;;6303353;28;20027;-78
2024/03/07 10:50:24;;;;;;;10.98;3.30;;;14.30;43.80;;;;;;6302011;28;20054;-77
2024/03/07 10:53:42;;;;;;;7.07;2.45;;;14.70;43.40;;;;;;6290218;28;20028;-77
2024/03/07 10:57:08;;;;;;;2.85;2.15;;;14.80;42.90;;;;;;6300724;28;20086;-78
2024/03/07 11:00:27;;;;;;;3.80;2.10;;;15.20;42.40;;;;;;6320048;28;20424;-77
2024/03/07 11:03:38;;;;;;;7.60;2.75;;;15.40;42.00;;;;;;6312840;28;20078;-80
2024/03/07 11:11:01;;;;;;;3.65;2.00;;;15.80;41.60;;;;;;6319237;28;20508;-78
2024/03/07 11:14:03;;;;;;;5.05;2.15;;;16.10;40.70;;;;;;6326187;28;20024;-77
2024/03/07 11:17:05;;;;;;;5.70;2.75;;;16.40;39.80;;;;;;6327603;28;20078;-76
2024/03/07 11:20:23;;;;;;;4.95;2.10;;;16.60;39.20;;;;;;6304593;28;20105;-77
2024/03/07 11:23:32;;;;;;;2.93;1.57;;;16.80;39.30;;;;;;6311680;28;20040;-78
2024/03/07 11:26:34;;;;;;;5.25;1.48;;;17.00;38.90;;;;;;6322646;28;20032;-77
2024/03/07 11:29:52;;;;;;;5.80;3.08;;;17.40;38.20;;;;;;6323014;28;20020;-78
2024/03/07 11:32:56;;;;;;;5.25;2.05;;;17.80;37.20;;;;;;6295734;28;20039;-81
2024/03/07 11:35:58;;;;;;;3.15;1.98;;;18.10;36.10;;;;;;6318537;28;20409;-77
2024/03/07 11:38:59;;;;;;;15.30;4.13;;;18.40;35.10;;;;;;6304593;28;20390;-79
2024/03/07 11:42:02;;;;;;;11.48;3.75;;;18.60;33.90;;;;;;6304793;28;20107;-78
2024/03/07 11:45:05;;;;;;;7.22;3.20;;;18.80;33.70;;;;;;6326557;28;20035;-80
2024/03/07 11:48:09;;;;;;;4.75;2.80;;;19.20;33.70;;;;;;6319662;28;20051;-78
2024/03/07 11:51:17;;;;;;;5.53;2.20;;;19.70;33.30;;;;;;6329565;28;20027;-78
2024/03/07 11:54:24;;;;;;;8.48;3.25;;;20.10;32.80;;;;;;6309132;28;20039;-78
2024/03/07 11:57:32;;;;;;;2.17;1.35;;;20.80;31.60;;;;;;6307023;28;20514;-78
2024/03/07 12:00:35;;;;;;;2.83;1.80;;;21.30;30.20;;;;;;6327998;28;20059;-78
2024/03/07 12:03:37;;;;;;;7.07;3.28;;;21.70;29.70;;;;;;6325610;28;20020;-78
2024/03/07 12:06:39;;;;;;;8.80;3.40;;;22.10;28.80;;;;;;6322933;28;20051;-78
2024/03/07 12:09:40;;;;;;;4.15;1.70;;;22.30;28.80;;;;;;6323862;28;20134;-77
2024/03/07 12:12:43;;;;;;;4.63;1.38;;;22.80;28.40;;;;;;6322052;28;20092;-77
2024/03/07 12:15:44;;;;;;;6.78;1.67;;;23.30;27.60;;;;;;6320384;28;20028;-78
2024/03/07 12:18:45;;;;;;;3.03;1.40;;;23.70;27.20;;;;;;6320146;28;20050;-78
2024/03/07 12:21:47;;;;;;;4.75;2.03;;;24.20;26.80;;;;;;6291197;28;20424;-78
2024/03/07 12:25:08;;;;;;;6.70;2.80;;;24.70;26.20;;;;;;6290915;28;20029;-77
2024/03/07 12:28:19;;;;;;;2.58;1.42;;;25.20;24.80;;;;;;6280323;28;20083;-79
2024/03/07 12:31:23;;;;;;;3.72;1.67;;;25.30;24.20;;;;;;6304997;28;20048;-78
2024/03/07 12:34:26;;;;;;;2.85;1.23;;;25.40;24.70;;;;;;6314369;28;20094;-78
2024/03/07 12:37:29;;;;;;;5.50;1.40;;;25.80;24.50;;;;;;6305196;28;20032;-78
2024/03/07 12:40:33;;;;;;;2.88;1.70;;;26.20;24.20;;;;;;6305901;28;20133;-78
2024/03/07 12:43:35;;;;;;;4.75;1.88;;;26.50;23.90;;;;;;6297594;28;20040;-77
2024/03/07 12:46:36;;;;;;;4.10;1.48;;;26.80;23.70;;;;;;6286534;28;20028;-76
2024/03/07 12:49:38;;;;;;;4.13;1.48;;;27.30;23.90;;;;;;6302063;28;20066;-78
2024/03/07 12:52:40;;;;;;;1.95;1.30;;;27.80;23.40;;;;;;6291343;28;20020;-78
2024/03/07 12:55:41;;;;;;;4.65;1.13;;;28.10;22.80;;;;;;6282623;28;20165;-80
2024/03/07 12:58:45;;;;;;;3.83;2.03;;;28.10;22.30;;;;;;6300325;28;20053;-78
2024/03/07 13:01:47;;;;;;;5.93;2.53;;;27.80;21.90;;;;;;6298605;28;20083;-78
2024/03/07 13:04:51;;;;;;;2.33;1.33;;;27.70;22.00;;;;;;6302600;28;20040;-77
2024/03/07 13:07:53;;;;;;;4.30;1.90;;;27.60;22.00;;;;;;6287067;28;20031;-79
2024/03/07 13:10:55;;;;;;;4.78;1.35;;;27.30;21.40;;;;;;6278271;28;20583;-79
2024/03/07 13:13:59;;;;;;;1.50;0.90;;;27.20;21.50;;;;;;6283180;28;20028;-78
2024/03/07 13:17:06;;;;;;;1.88;1.00;;;26.60;21.90;;;;;;6285546;28;20021;-78
2024/03/07 13:20:12;;;;;;;1.95;1.20;;;25.70;22.30;;;;;;6306159;28;20032;-79
2024/03/07 13:23:14;;;;;;;3.92;1.70;;;24.90;22.90;;;;;;6281772;28;20033;-78
2024/03/07 13:26:24;;;;;;;3.80;2.03;;;24.10;23.50;;;;;;6282270;28;20036;-80
2024/03/07 13:29:28;;;;;;;1.92;1.00;;;23.40;23.80;;;;;;6284730;28;20052;-78
2024/03/07 13:32:30;;;;;;;1.80;1.00;;;22.70;24.00;;;;;;6317419;28;20022;-77
2024/03/07 13:35:31;;;;;;;2.05;0.90;;;22.20;24.20;;;;;;6302923;28;20089;-77
2024/03/07 13:38:32;;;;;;;2.67;0.82;;;21.60;24.30;;;;;;6293323;28;20086;-78
2024/03/07 13:41:32;;;;;;;0.50;0.43;;;21.20;24.80;;;;;;6281285;28;20032;-76
2024/03/07 13:44:34;;;;;;;0.95;0.50;;;20.70;25.10;;;;;;6277262;28;20026;-76
2024/03/07 13:47:36;;;;;;;2.53;0.90;;;20.40;25.60;;;;;;6291363;28;20100;-77
2024/03/07 13:50:40;;;;;;;3.08;0.82;;;20.10;25.80;;;;;;6288085;28;20092;-76
2024/03/07 13:53:50;;;;;;;1.58;0.60;;;19.90;26.20;;;;;;6275680;28;20047;-76
2024/03/07 13:57:05;;;;;;;3.28;0.52;;;19.70;26.30;;;;;;6281361;28;20032;-78
2024/03/07 14:00:40;;;;;;;0.40;0.40;;;19.50;26.60;;;;;;6307724;28;20088;-78
2024/03/07 14:04:14;;;;;;;1.75;0.73;;;19.30;26.90;;;;;;6292817;28;20021;-77
2024/03/07 14:07:40;;;;;;;1.85;0.60;;;19.20;27.20;;;;;;6284045;28;20121;-76
2024/03/07 14:11:15;;;;;;;4.68;1.00;;;19.00;27.50;;;;;;6287701;28;20099;-78
2024/03/07 14:14:43;;;;;;;2.45;0.70;;;18.90;28.00;;;;;;6284020;28;20114;-78
2024/03/07 14:17:59;;;;;;;1.90;0.95;;;18.80;28.30;;;;;;6304120;28;20032;-77
2024/03/07 14:21:31;;;;;;;1.73;0.98;;;18.80;28.60;;;;;;6284628;28;20032;-77
2024/03/07 14:25:19;;;;;;;3.03;0.82;;;18.80;28.80;;;;;;6301586;28;20081;-77
2024/03/07 14:28:58;;;;;;;1.00;0.80;;;18.70;29.00;;;;;;6270727;28;20530;-76
2024/03/07 14:32:01;;;;;;;1.98;0.80;;;18.60;29.20;;;;;;6182662;28;20057;-78
2024/03/07 14:35:17;;;;;;;1.13;0.65;;;18.60;29.30;;;;;;6194182;28;20022;-77
2024/03/07 14:38:22;;;;;;;2.40;0.90;;;18.50;29.40;;;;;;6210305;28;20076;-77
2024/03/07 14:41:45;;;;;;;2.92;1.02;;;18.50;29.60;;;;;;6194047;28;20078;-77
2024/03/07 14:44:48;;;;;;;4.72;0.85;;;18.40;29.70;;;;;;6210480;28;20037;-78
2024/03/07 14:47:54;;;;;;;0.98;0.77;;;18.30;29.80;;;;;;6220232;28;20083;-77
2024/03/07 14:50:55;;;;;;;6.30;1.00;;;18.40;30.00;;;;;;6178324;28;20454;-79
2024/03/07 14:53:58;;;;;;;2.35;1.10;;;18.30;30.00;;;;;;6196674;28;20152;-77
2024/03/07 14:57:00;;;;;;;2.75;1.15;;;18.30;30.00;;;;;;6193592;28;20458;-77
2024/03/07 15:00:01;;;;;;;3.45;0.80;;;18.20;30.10;;;;;;6190823;28;20030;-77
2024/03/07 15:03:06;;;;;;;1.25;0.70;;;18.20;30.40;;;;;;6190928;28;20038;-77
2024/03/07 15:06:10;;;;;;;3.83;0.77;;;18.20;30.50;;;;;;6208806;28;20116;-76
2024/03/07 15:09:13;;;;;;;1.20;0.68;;;18.20;30.40;;;;;;6266856;28;20032;-77
2024/03/07 15:12:14;;;;;;;2.33;0.70;;;18.20;30.30;;;;;;6308919;28;20019;-78
2024/03/07 15:15:15;;;;;;;3.22;0.82;;;18.10;30.30;;;;;;6269313;28;20047;-77
2024/03/07 15:18:16;;;;;;;1.10;0.63;;;18.10;30.20;;;;;;6286693;28;20223;-77
2024/03/07 15:21:17;;;;;;;2.10;0.65;;;18.10;30.10;;;;;;6309448;28;20073;-78
2024/03/07 15:24:21;;;;;;;2.03;0.90;;;18.10;30.00;;;;;;6269036;28;20176;-77
2024/03/07 15:27:23;;;;;;;3.83;0.88;;;18.10;30.00;;;;;;6308542;28;20706;-76
2024/03/07 15:30:34;;;;;;;1.35;0.98;;;18.00;30.00;;;;;;6304418;28;20089;-77
2024/03/07 15:33:35;;;;;;;1.92;0.70;;;18.00;30.00;;;;;;6304630;28;20012;-75
2024/03/07 15:36:36;;;;;;;2.63;0.70;;;18.00;30.60;;;;;;6315646;28;20023;-77
2024/03/07 15:39:38;;;;;;;0.60;0.60;;;18.00;30.00;;;;;;6304247;28;20066;-77
2024/03/07 15:42:43;;;;;;;5.90;0.90;;;18.00;30.00;;;;;;6301987;28;20042;-78
2024/03/07 15:45:44;;;;;;;0.75;0.52;;;18.00;30.00;;;;;;6311763;28;20064;-78
2024/03/07 15:48:48;;;;;;;0.70;0.70;;;18.00;29.90;;;;;;6304188;28;20588;-78
2024/03/07 15:51:50;;;;;;;2.72;0.60;;;17.90;29.90;;;;;;6314011;28;20039;-78
2024/03/07 15:54:51;;;;;;;1.80;0.47;;;17.90;29.90;;;;;;6306095;28;20089;-78
2024/03/07 15:57:59;;;;;;;1.27;0.68;;;17.80;29.90;;;;;;6286410;28;20031;-77
2024/03/07 16:01:00;;;;;;;1.25;0.63;;;17.80;30.00;;;;;;6311372;28;20070;-78
2024/03/07 16:04:01;;;;;;;1.75;0.80;;;17.80;30.00;;;;;;6308891;28;20080;-76
2024/03/07 16:07:03;;;;;;;1.70;0.77;;;17.80;30.00;;;;;;6314592;28;21309;-77
2024/03/07 16:10:04;;;;;;;0.70;0.68;;;17.80;30.00;;;;;;6305820;28;20078;-77